Abraham González International Airport
MMCS : now visible

Airfield :











YOU CAN JOIN US ON...

 
LOGIN :

Register | Disclaimer

   EN    FR    IT 

 









Legend :    VFR   Marginal VFR   IFR   Intensive IFR   Very Intensive IFR
Visi :
Ceiling :
>= 8 km
>= 3000ft
5 to 8 km
1000 to 3000 ft
1500m to 5 km
500 to 1000 ft
800 to 1500m
200 to 500 ft
< 800m
< 200 ft
Symbols :   Thunderstorms  Fog  Heavy snow  Heavy precipitations  Wind > 20 kt






- Airport Elevation : 3904 ft
- IATA code : CJS


MMCS - Abraham González International

CURRENT METAR :
  • 131440Z 04006KT 10SM SKC 27/09 A3025 RMK SLP112 52013 911

EXPIRED METARs :
  • 131340Z 03007KT 10SM SKC 25/08 A3024
  • 131140Z 00000KT 10SM SKC 23/07 A3021 RMK SLP098 5//// 912 RTS

TAF TAF MMCS
Valid from the 13 at 06:00 until the 14 at 06:00 UTC


130548Z 1306/1406 05010KT P6SM SKC
FM131600 24010KT P6SM SKC
FM140200 27005KT P6SM SKC
MMFR FIR / North America



MET'MAP, your aeronautical weather chart ! - Copyright ORBIFLY December 2007 - Disclaimer

ORBIFLY MET'MAP TEAM :

Programming & Development : Alexandra Zaïnal
Original concept : Baudouin d'Aumeries
Technical & hardware support : Manuel Goepfert
Assistance : Marc-Olivier Méhu




SOURCES & CREDITS :

   NOAA       Earth
Advisory